HTKA

Kigoma Airport

Kigoma, Tanzania
METAR HTKA 181900Z 00000KT 9999 FEW021 FEW022CB BKN230 22/21 Q1015
Observed Flight Rules
Dec-18 @ 19:00 UTC (an hour ago) Visual Flight Rules
Wind Visibility Clouds
Calm 10,000+ meters
  • Few at 2,100' AGL
  • Few at 2,200' AGL
  • Broken at 23,000' AGL
Temperatures Readings
Current 22°C / 72°F
Dewpoint 21°C / 70°F
Humidity 94%
Altimeter 29.97" Hg
Pressure 1015 hPa
Elevation 885
METAR HTKA 181900Z 00000KT 9999 FEW021 FEW022CB BKN230 22/21 Q1015
Observed Flight Rules
Dec-18 @ 19:00 UTC
(an hour ago)
VFR
Wind Visibility
Calm 10,000+ meters
Clouds
  • Few at 2,100' AGL
  • Few at 2,200' AGL
  • Broken at 23,000' AGL
Temperature Dewpoint
22°C / 72°F 21°C / 70°F
Humidity Altimeter Pressure
94% 29.97" Hg 1015 hPa